createdAt,value
2018-09-26T00:01:52.980Z,9.10
2018-09-26T00:04:26.800Z,9.00
2018-09-26T00:06:54.407Z,9.00
2018-09-26T00:09:21.737Z,9.00
2018-09-26T00:11:49.072Z,9.00
2018-09-26T00:14:16.395Z,8.90
2018-09-26T00:16:43.719Z,8.90
2018-09-26T00:19:11.039Z,8.90
2018-09-26T00:21:38.393Z,8.90
2018-09-26T00:24:05.899Z,8.90
2018-09-26T00:26:33.211Z,8.90
2018-09-26T00:29:00.515Z,8.90
2018-09-26T00:31:27.839Z,8.90
2018-09-26T00:33:55.192Z,8.80
2018-09-26T00:36:22.517Z,8.80
2018-09-26T00:38:50.010Z,8.90
2018-09-26T00:41:17.327Z,8.90
2018-09-26T00:43:44.661Z,8.90
2018-09-26T00:46:12.172Z,8.90
2018-09-26T00:48:39.736Z,8.90
2018-09-26T00:51:07.195Z,8.90
2018-09-26T00:53:34.856Z,8.90
2018-09-26T00:56:02.511Z,8.90
2018-09-26T00:58:29.843Z,9.00
2018-09-26T01:00:57.207Z,8.90
2018-09-26T01:03:24.537Z,8.90
2018-09-26T01:05:51.871Z,8.80
2018-09-26T01:08:19.227Z,8.80
2018-09-26T01:10:46.663Z,8.90
2018-09-26T01:13:14.007Z,8.80
2018-09-26T01:15:41.966Z,8.80
2018-09-26T01:18:09.307Z,8.80
2018-09-26T01:20:38.535Z,8.80
2018-09-26T01:23:05.843Z,8.80
2018-09-26T01:25:33.167Z,8.80
2018-09-26T01:28:00.552Z,8.80
2018-09-26T01:30:28.139Z,8.90
2018-09-26T01:32:55.451Z,8.90
2018-09-26T01:35:22.761Z,8.90
2018-09-26T01:37:50.204Z,8.80
2018-09-26T01:40:17.514Z,8.90
2018-09-26T01:42:44.797Z,8.90
2018-09-26T01:45:12.115Z,8.90
2018-09-26T01:47:39.419Z,8.90
2018-09-26T01:50:06.761Z,8.80
2018-09-26T01:52:34.078Z,8.80
2018-09-26T01:55:01.375Z,8.80
2018-09-26T01:57:28.684Z,8.80
2018-09-26T01:59:56.003Z,8.80
2018-09-26T02:02:23.314Z,8.80
2018-09-26T02:04:50.651Z,8.80
2018-09-26T02:07:17.967Z,8.80
2018-09-26T02:09:45.286Z,8.70
2018-09-26T02:12:12.583Z,8.70
2018-09-26T02:14:39.944Z,8.70
2018-09-26T02:17:07.286Z,8.70
2018-09-26T02:19:34.591Z,8.70
2018-09-26T02:22:02.172Z,8.60
2018-09-26T02:24:29.715Z,8.60
2018-09-26T02:26:57.022Z,8.60
2018-09-26T02:29:24.545Z,8.60
2018-09-26T02:31:51.847Z,8.60
2018-09-26T02:34:19.149Z,8.60
2018-09-26T02:36:46.463Z,8.60
2018-09-26T02:39:13.779Z,8.70
2018-09-26T02:41:41.084Z,8.50
2018-09-26T02:44:08.416Z,8.60
2018-09-26T02:46:35.731Z,8.50
2018-09-26T02:49:04.512Z,8.50
2018-09-26T02:51:32.683Z,8.60
2018-09-26T02:53:59.992Z,8.50
2018-09-26T02:56:27.283Z,8.60
2018-09-26T02:58:54.604Z,8.50
2018-09-26T03:01:22.204Z,8.50
2018-09-26T03:03:49.507Z,8.60
2018-09-26T03:06:17.011Z,8.50
2018-09-26T03:08:44.569Z,8.50
2018-09-26T03:11:11.897Z,8.50
2018-09-26T03:13:39.175Z,8.50
2018-09-26T03:16:06.531Z,8.60
2018-09-26T03:18:33.820Z,8.50
2018-09-26T03:21:01.135Z,8.50
2018-09-26T03:23:28.480Z,8.40
2018-09-26T03:25:55.815Z,8.40
2018-09-26T03:28:23.175Z,8.40
2018-09-26T03:30:50.655Z,8.40
2018-09-26T03:33:17.946Z,8.40
2018-09-26T03:35:45.301Z,8.40
2018-09-26T03:38:12.599Z,8.40
2018-09-26T03:40:39.884Z,8.40
2018-09-26T03:43:07.423Z,8.40
2018-09-26T03:45:34.722Z,8.40
2018-09-26T03:48:02.023Z,8.40
2018-09-26T03:50:29.336Z,8.40
2018-09-26T03:52:56.670Z,8.40
2018-09-26T03:55:23.980Z,8.40
2018-09-26T03:57:51.462Z,8.40
2018-09-26T04:00:18.811Z,8.40
2018-09-26T04:02:46.127Z,8.40
2018-09-26T04:05:13.409Z,8.40
2018-09-26T04:07:40.964Z,8.40
2018-09-26T04:12:36.318Z,8.40
2018-09-26T04:15:03.791Z,8.40
2018-09-26T04:17:31.075Z,8.60
2018-09-26T04:19:58.416Z,8.40
2018-09-26T04:22:25.918Z,8.40
2018-09-26T04:24:53.224Z,8.40
2018-09-26T04:27:20.635Z,8.40
2018-09-26T04:29:47.987Z,8.40
2018-09-26T04:32:15.261Z,8.40
2018-09-26T04:34:42.591Z,8.40
2018-09-26T04:37:09.903Z,8.40
2018-09-26T04:39:37.203Z,8.50
2018-09-26T04:42:04.757Z,8.50
2018-09-26T04:44:32.048Z,8.50
2018-09-26T04:46:59.565Z,8.60
2018-09-26T04:52:01.187Z,8.60
2018-09-26T04:54:28.681Z,8.60
2018-09-26T04:56:56.003Z,8.60
2018-09-26T04:59:23.312Z,8.60
2018-09-26T05:01:50.863Z,8.60
2018-09-26T05:04:18.163Z,8.60
2018-09-26T05:06:45.449Z,8.70
2018-09-26T05:09:12.780Z,8.70
2018-09-26T05:11:40.111Z,8.70
2018-09-26T05:14:07.431Z,8.70
2018-09-26T05:16:34.775Z,8.70
2018-09-26T05:19:02.252Z,8.70
2018-09-26T05:21:29.701Z,8.70
2018-09-26T05:23:57.009Z,8.70
2018-09-26T05:26:24.327Z,8.70
2018-09-26T05:28:51.597Z,8.70
2018-09-26T05:31:19.159Z,8.70
2018-09-26T05:33:46.451Z,8.70
2018-09-26T05:36:13.751Z,8.70
2018-09-26T05:38:41.087Z,8.70
2018-09-26T05:41:08.397Z,8.70
2018-09-26T05:43:35.690Z,8.70
2018-09-26T05:46:03.236Z,8.70
2018-09-26T05:48:30.536Z,8.80
2018-09-26T05:50:57.875Z,8.80
2018-09-26T05:53:25.633Z,8.80
2018-09-26T05:55:52.938Z,8.80
2018-09-26T05:58:20.234Z,8.80
2018-09-26T06:00:47.557Z,8.90
2018-09-26T06:03:14.879Z,8.90
2018-09-26T06:05:42.228Z,9.00
2018-09-26T06:08:09.509Z,9.00
2018-09-26T06:10:36.829Z,9.00
2018-09-26T06:13:04.177Z,9.10
2018-09-26T06:15:31.481Z,9.10
2018-09-26T06:17:59.055Z,9.20
2018-09-26T06:20:26.355Z,9.20
2018-09-26T06:22:53.671Z,9.30
2018-09-26T06:25:21.038Z,9.30
2018-09-26T06:27:48.332Z,9.40
2018-09-26T06:30:15.632Z,9.40
2018-09-26T06:32:42.972Z,9.50
2018-09-26T06:35:10.292Z,9.60
2018-09-26T06:37:37.571Z,9.60
2018-09-26T06:40:05.287Z,9.70
2018-09-26T06:42:32.609Z,9.80
2018-09-26T06:44:59.978Z,9.90
2018-09-26T06:47:27.364Z,9.90
2018-09-26T06:49:54.660Z,10.00
2018-09-26T06:52:21.956Z,10.10
2018-09-26T06:54:49.308Z,10.20
2018-09-26T06:57:16.618Z,10.30
2018-09-26T06:59:43.933Z,10.40
2018-09-26T07:02:11.292Z,10.50
2018-09-26T07:04:38.579Z,10.50
2018-09-26T07:07:06.136Z,10.60
2018-09-26T07:12:07.553Z,10.70
2018-09-26T07:14:34.813Z,10.80
2018-09-26T07:17:02.161Z,10.90
2018-09-26T07:19:29.538Z,11.00
2018-09-26T07:21:56.807Z,11.10
2018-09-26T07:24:24.128Z,11.20
2018-09-26T07:26:51.479Z,11.20
2018-09-26T07:29:18.851Z,11.30
2018-09-26T07:31:46.197Z,11.40
2018-09-26T07:34:13.491Z,11.50
2018-09-26T07:36:40.859Z,11.60
2018-09-26T07:39:09.867Z,11.60
2018-09-26T07:41:37.202Z,11.70
2018-09-26T07:44:04.492Z,11.80
2018-09-26T07:46:32.313Z,11.90
2018-09-26T07:48:59.627Z,12.00
2018-09-26T07:51:26.921Z,12.10
2018-09-26T07:53:54.257Z,12.30
2018-09-26T07:56:21.536Z,12.40
2018-09-26T07:58:48.820Z,12.60
2018-09-26T08:01:16.175Z,12.70
2018-09-26T08:03:43.471Z,12.80
2018-09-26T08:06:10.808Z,12.90
2018-09-26T08:08:38.739Z,13.00
2018-09-26T08:11:06.060Z,13.10
2018-09-26T08:13:33.340Z,13.30
2018-09-26T08:16:00.618Z,13.40
2018-09-26T08:18:27.914Z,13.50
2018-09-26T08:20:55.266Z,13.60
2018-09-26T08:23:22.596Z,13.70
2018-09-26T08:25:49.910Z,13.80
2018-09-26T08:28:17.230Z,13.90
2018-09-26T08:30:44.548Z,14.00
2018-09-26T08:33:11.814Z,14.10
2018-09-26T08:35:39.079Z,14.20
2018-09-26T08:38:06.398Z,14.30
2018-09-26T08:40:33.705Z,14.40
2018-09-26T08:43:00.992Z,14.50
2018-09-26T08:45:28.299Z,14.50
2018-09-26T08:47:55.597Z,14.70
2018-09-26T08:50:22.898Z,14.80
2018-09-26T08:52:50.243Z,14.90
2018-09-26T08:55:17.611Z,15.00
2018-09-26T08:57:44.966Z,15.10
2018-09-26T09:00:12.280Z,15.20
2018-09-26T09:02:39.575Z,15.30
2018-09-26T09:05:06.888Z,15.40
2018-09-26T09:07:34.487Z,15.40
2018-09-26T09:10:01.785Z,15.40
2018-09-26T09:12:29.072Z,15.50
2018-09-26T09:14:56.626Z,15.50
2018-09-26T09:17:24.112Z,15.50
2018-09-26T09:19:51.391Z,15.60
2018-09-26T09:22:18.711Z,15.70
2018-09-26T09:24:46.323Z,15.80
2018-09-26T09:27:13.658Z,15.80
2018-09-26T09:29:40.907Z,16.00
2018-09-26T09:32:08.214Z,16.10
2018-09-26T09:34:35.547Z,16.20
2018-09-26T09:37:02.896Z,16.30
2018-09-26T09:39:30.209Z,16.50
2018-09-26T09:41:57.548Z,16.60
2018-09-26T09:44:25.132Z,16.70
2018-09-26T09:46:52.438Z,16.90
2018-09-26T09:49:19.759Z,17.00
2018-09-26T09:51:47.106Z,17.10
2018-09-26T09:54:17.451Z,17.20
2018-09-26T09:56:44.770Z,17.30
2018-09-26T09:59:12.069Z,17.40
2018-09-26T10:01:39.373Z,17.60
2018-09-26T10:04:06.912Z,17.60
2018-09-26T10:06:34.276Z,17.80
2018-09-26T10:09:01.612Z,17.90
2018-09-26T10:11:29.034Z,17.90
2018-09-26T10:13:56.363Z,18.00
2018-09-26T10:16:23.713Z,18.20
2018-09-26T10:18:51.044Z,18.30
2018-09-26T10:21:18.392Z,18.30
2018-09-26T10:23:45.720Z,18.50
2018-09-26T10:26:13.028Z,18.50
2018-09-26T10:28:40.655Z,18.60
2018-09-26T10:31:08.063Z,18.70
2018-09-26T10:33:35.387Z,18.80
2018-09-26T10:36:02.725Z,18.90
2018-09-26T10:38:30.038Z,19.00
2018-09-26T10:40:57.393Z,19.00
2018-09-26T10:43:24.692Z,19.10
2018-09-26T10:45:52.007Z,19.20
2018-09-26T10:48:19.323Z,19.30
2018-09-26T10:50:46.705Z,19.30
2018-09-26T10:53:14.026Z,19.40
2018-09-26T10:55:41.364Z,19.50
2018-09-26T10:58:09.023Z,19.60
2018-09-26T11:00:36.312Z,19.70
2018-09-26T11:03:03.734Z,19.70
2018-09-26T11:05:31.095Z,19.80
2018-09-26T11:07:58.478Z,19.80
2018-09-26T11:10:25.866Z,19.90
2018-09-26T11:12:53.081Z,20.00
2018-09-26T11:15:20.677Z,20.00
2018-09-26T11:17:47.908Z,20.10
2018-09-26T11:20:15.240Z,20.20
2018-09-26T11:22:42.540Z,20.20
2018-09-26T11:25:09.845Z,20.30
2018-09-26T11:27:37.156Z,20.40
2018-09-26T11:30:04.499Z,20.50
2018-09-26T11:32:31.805Z,20.50
2018-09-26T11:34:59.116Z,20.50
2018-09-26T11:37:26.424Z,20.60
2018-09-26T11:39:53.724Z,20.60
2018-09-26T11:42:21.307Z,20.70
2018-09-26T11:44:48.799Z,20.80
2018-09-26T11:47:15.999Z,20.80
2018-09-26T11:49:43.674Z,20.80
2018-09-26T11:52:11.110Z,20.90
2018-09-26T11:54:38.412Z,20.90
2018-09-26T11:57:05.772Z,21.00
2018-09-26T11:59:33.121Z,21.00
2018-09-26T12:02:00.479Z,21.10
2018-09-26T12:04:27.748Z,21.10
2018-09-26T12:06:55.293Z,21.10
2018-09-26T12:09:22.604Z,21.10
2018-09-26T12:11:49.944Z,21.10
2018-09-26T12:14:17.261Z,21.10
2018-09-26T12:16:44.559Z,21.10
2018-09-26T12:19:11.939Z,21.20
2018-09-26T12:21:39.238Z,21.10
2018-09-26T12:24:06.644Z,21.20
2018-09-26T12:26:34.032Z,21.20
2018-09-26T12:29:01.443Z,21.20
2018-09-26T12:31:28.753Z,21.30
2018-09-26T12:33:56.131Z,21.30
2018-09-26T12:36:23.576Z,21.30
2018-09-26T12:38:50.884Z,21.40
2018-09-26T12:41:18.202Z,21.40
2018-09-26T12:43:45.526Z,21.50
2018-09-26T12:46:12.942Z,21.60
2018-09-26T12:48:40.240Z,21.60
2018-09-26T12:51:07.587Z,21.60
2018-09-26T12:53:35.668Z,21.60
2018-09-26T12:56:02.968Z,21.60
2018-09-26T12:58:30.319Z,21.70
2018-09-26T13:00:57.639Z,21.70
2018-09-26T13:03:25.003Z,21.70
2018-09-26T13:05:52.331Z,21.70
2018-09-26T13:08:19.733Z,21.70
2018-09-26T13:10:47.031Z,21.80
2018-09-26T13:13:14.307Z,21.80
2018-09-26T13:15:41.613Z,21.90
2018-09-26T13:18:08.961Z,21.90
2018-09-26T13:20:36.265Z,21.90
2018-09-26T13:23:03.583Z,21.90
2018-09-26T13:25:30.968Z,21.90
2018-09-26T13:27:58.219Z,21.90
2018-09-26T13:30:25.797Z,22.00
2018-09-26T13:32:53.070Z,22.00
2018-09-26T13:35:20.376Z,22.00
2018-09-26T13:37:47.673Z,22.00
2018-09-26T13:40:15.015Z,22.00
2018-09-26T13:42:42.381Z,22.00
2018-09-26T13:45:09.699Z,22.00
2018-09-26T13:47:36.994Z,22.00
2018-09-26T13:50:04.620Z,22.00
2018-09-26T13:52:31.911Z,22.00
2018-09-26T13:54:59.236Z,22.00
2018-09-26T13:57:26.540Z,22.10
2018-09-26T13:59:53.878Z,22.10
2018-09-26T14:02:21.262Z,22.10
2018-09-26T14:04:48.696Z,22.10
2018-09-26T14:07:15.999Z,22.10
2018-09-26T14:09:43.373Z,22.10
2018-09-26T14:12:10.728Z,22.20
2018-09-26T14:14:38.033Z,22.20
2018-09-26T14:17:05.428Z,22.20
2018-09-26T14:19:32.915Z,22.20
2018-09-26T14:22:00.229Z,22.30
2018-09-26T14:24:27.564Z,22.30
2018-09-26T14:26:54.901Z,22.30
2018-09-26T14:29:22.652Z,22.30
2018-09-26T14:31:49.921Z,22.30
2018-09-26T14:34:17.269Z,22.40
2018-09-26T14:36:44.588Z,22.40
2018-09-26T14:39:11.988Z,22.40
2018-09-26T14:41:39.253Z,22.40
2018-09-26T14:44:06.612Z,22.40
2018-09-26T14:46:33.990Z,22.40
2018-09-26T14:49:01.299Z,22.40
2018-09-26T14:51:28.666Z,22.40
2018-09-26T14:53:55.990Z,22.40
2018-09-26T14:56:23.394Z,22.50
2018-09-26T14:58:50.902Z,22.40
2018-09-26T15:01:18.199Z,22.40
2018-09-26T15:03:45.504Z,22.40
2018-09-26T15:06:13.072Z,22.40
2018-09-26T15:08:40.408Z,22.40
2018-09-26T15:11:07.892Z,22.40
2018-09-26T15:13:35.219Z,22.40
2018-09-26T15:16:02.555Z,22.40
2018-09-26T15:18:29.889Z,22.40
2018-09-26T15:20:57.190Z,22.30
2018-09-26T15:23:24.503Z,22.30
2018-09-26T15:25:51.881Z,22.30
2018-09-26T15:28:19.208Z,22.30
2018-09-26T15:30:46.499Z,22.30
2018-09-26T15:33:13.800Z,22.30
2018-09-26T15:35:41.189Z,22.30
2018-09-26T15:38:08.533Z,22.30
2018-09-26T15:40:35.852Z,22.30
2018-09-26T15:43:03.177Z,22.30
2018-09-26T15:45:30.457Z,22.30
2018-09-26T15:47:57.767Z,22.30
2018-09-26T15:50:25.168Z,22.20
2018-09-26T15:52:52.482Z,22.20
2018-09-26T15:55:19.902Z,22.20
2018-09-26T15:57:47.312Z,22.20
2018-09-26T16:00:14.761Z,22.10
2018-09-26T16:02:42.028Z,22.10
2018-09-26T16:05:09.966Z,22.10
2018-09-26T16:07:37.320Z,22.10
2018-09-26T16:10:04.760Z,22.00
2018-09-26T16:12:32.575Z,22.00
2018-09-26T16:14:59.939Z,22.00
2018-09-26T16:17:27.239Z,21.90
2018-09-26T16:19:54.600Z,21.90
2018-09-26T16:22:21.970Z,21.90
2018-09-26T16:24:49.287Z,21.80
2018-09-26T16:27:16.781Z,21.80
2018-09-26T16:29:44.177Z,21.80
2018-09-26T16:32:11.559Z,21.80
2018-09-26T16:34:39.020Z,21.70
2018-09-26T16:37:06.322Z,21.70
2018-09-26T16:39:33.805Z,21.60
2018-09-26T16:42:01.067Z,21.60
2018-09-26T16:44:28.366Z,21.60
2018-09-26T16:46:55.681Z,21.50
2018-09-26T16:49:23.004Z,21.50
2018-09-26T16:51:50.293Z,21.40
2018-09-26T16:54:17.710Z,21.30
2018-09-26T16:56:45.201Z,21.30
2018-09-26T16:59:12.502Z,21.20
2018-09-26T17:01:39.821Z,21.20
2018-09-26T17:04:07.156Z,21.10
2018-09-26T17:06:34.448Z,21.00
2018-09-26T17:09:01.897Z,21.00
2018-09-26T17:11:29.247Z,20.90
2018-09-26T17:13:56.660Z,20.80
2018-09-26T17:16:24.072Z,20.70
2018-09-26T17:18:51.320Z,20.60
2018-09-26T17:21:18.652Z,20.60
2018-09-26T17:23:46.132Z,20.50
2018-09-26T17:26:13.459Z,20.40
2018-09-26T17:28:40.864Z,20.30
2018-09-26T17:31:08.311Z,20.20
2018-09-26T17:33:35.624Z,20.20
2018-09-26T17:36:02.951Z,20.10
2018-09-26T17:38:30.491Z,20.00
2018-09-26T17:40:57.849Z,19.90
2018-09-26T17:43:26.381Z,19.70
2018-09-26T17:45:53.771Z,19.70
2018-09-26T17:48:21.115Z,19.60
2018-09-26T17:50:48.468Z,19.60
2018-09-26T17:53:15.802Z,19.50
2018-09-26T17:55:43.107Z,19.40
2018-09-26T17:58:10.439Z,19.30
2018-09-26T18:00:37.764Z,19.20
2018-09-26T18:03:05.132Z,19.10
2018-09-26T18:05:32.478Z,19.10
2018-09-26T18:07:59.829Z,19.00
2018-09-26T18:10:27.116Z,18.90
2018-09-26T18:12:54.469Z,18.80
2018-09-26T18:15:21.793Z,18.80
2018-09-26T18:17:49.127Z,18.70
2018-09-26T18:20:16.455Z,18.60
2018-09-26T18:22:43.864Z,18.50
2018-09-26T18:25:11.230Z,18.40
2018-09-26T18:27:38.670Z,18.30
2018-09-26T18:30:06.238Z,18.20
2018-09-26T18:32:33.566Z,18.10
2018-09-26T18:35:00.945Z,18.00
2018-09-26T18:37:28.273Z,17.90
2018-09-26T18:39:55.571Z,17.80
2018-09-26T18:42:22.916Z,17.70
2018-09-26T18:44:50.489Z,17.70
2018-09-26T18:47:17.779Z,17.60
2018-09-26T18:49:45.071Z,17.50
2018-09-26T18:52:12.439Z,17.30
2018-09-26T18:54:39.834Z,17.30
2018-09-26T18:57:07.237Z,17.20
2018-09-26T18:59:34.846Z,17.20
2018-09-26T19:02:02.152Z,17.10
2018-09-26T19:04:29.555Z,17.00
2018-09-26T19:06:56.901Z,16.90
2018-09-26T19:09:24.216Z,16.90
2018-09-26T19:11:51.515Z,16.80
2018-09-26T19:14:18.930Z,16.80
2018-09-26T19:16:46.268Z,16.60
2018-09-26T19:19:13.602Z,16.50
2018-09-26T19:21:40.960Z,16.50
2018-09-26T19:24:08.273Z,16.50
2018-09-26T19:26:35.773Z,16.40
2018-09-26T19:29:03.129Z,16.30
2018-09-26T19:31:30.484Z,16.30
2018-09-26T19:33:58.006Z,16.20
2018-09-26T19:36:25.445Z,16.10
2018-09-26T19:38:52.763Z,16.10
2018-09-26T19:41:20.208Z,16.10
2018-09-26T19:43:47.550Z,16.00
2018-09-26T19:46:15.022Z,16.00
2018-09-26T19:48:42.329Z,15.90
2018-09-26T19:51:09.731Z,15.90
2018-09-26T19:53:37.364Z,15.90
2018-09-26T19:56:04.759Z,15.80
2018-09-26T19:58:32.067Z,15.80
2018-09-26T20:00:59.413Z,15.70
2018-09-26T20:03:26.956Z,15.70
2018-09-26T20:05:54.283Z,15.70
2018-09-26T20:08:21.794Z,15.70
2018-09-26T20:10:49.136Z,15.70
2018-09-26T20:13:16.485Z,15.70
2018-09-26T20:15:43.819Z,15.60
2018-09-26T20:18:11.323Z,15.60
2018-09-26T20:20:38.691Z,15.60
2018-09-26T20:23:06.248Z,15.60
2018-09-26T20:25:33.658Z,15.50
2018-09-26T20:28:00.972Z,15.60
2018-09-26T20:30:28.331Z,15.50
2018-09-26T20:32:55.652Z,15.50
2018-09-26T20:35:22.963Z,15.50
2018-09-26T20:37:50.415Z,15.40
2018-09-26T20:40:17.699Z,15.40
2018-09-26T20:42:44.988Z,15.40
2018-09-26T20:45:12.280Z,15.40
2018-09-26T20:50:07.097Z,15.30
2018-09-26T20:52:34.411Z,15.30
2018-09-26T20:55:01.731Z,15.20
2018-09-26T20:57:29.055Z,15.20
2018-09-26T20:59:56.384Z,15.20
2018-09-26T21:02:23.706Z,15.20
2018-09-26T21:04:51.036Z,15.20
2018-09-26T21:07:18.352Z,15.20
2018-09-26T21:09:45.649Z,15.10
2018-09-26T21:12:13.184Z,15.10
2018-09-26T21:14:40.506Z,15.00
2018-09-26T21:17:07.811Z,15.00
2018-09-26T21:19:35.154Z,15.00
2018-09-26T21:22:02.477Z,15.00
2018-09-26T21:24:29.829Z,14.90
2018-09-26T21:26:57.143Z,14.90
2018-09-26T21:29:24.500Z,14.90
2018-09-26T21:31:52.044Z,14.90
2018-09-26T21:34:19.351Z,14.90
2018-09-26T21:36:46.653Z,14.90
2018-09-26T21:39:13.990Z,14.90
2018-09-26T21:41:41.318Z,14.90
2018-09-26T21:44:08.619Z,14.90
2018-09-26T21:46:36.664Z,14.90
2018-09-26T21:49:04.035Z,14.90
2018-09-26T21:51:31.340Z,14.90
2018-09-26T21:53:58.676Z,14.90
2018-09-26T21:56:26.000Z,15.00
2018-09-26T21:58:53.283Z,15.00
2018-09-26T22:01:20.667Z,15.00
2018-09-26T22:03:48.018Z,15.00
2018-09-26T22:06:16.044Z,15.00
2018-09-26T22:08:43.372Z,15.00
2018-09-26T22:11:10.687Z,15.00
2018-09-26T22:13:38.044Z,15.00
2018-09-26T22:16:05.410Z,15.00
2018-09-26T22:18:32.713Z,15.10
2018-09-26T22:21:00.057Z,15.00
2018-09-26T22:23:27.450Z,15.10
2018-09-26T22:25:54.738Z,15.10
2018-09-26T22:28:22.060Z,15.10
2018-09-26T22:30:49.567Z,15.10
2018-09-26T22:33:17.040Z,15.10
2018-09-26T22:35:44.332Z,15.10
2018-09-26T22:38:11.709Z,15.10
2018-09-26T22:40:39.027Z,15.10
2018-09-26T22:43:06.469Z,15.10
2018-09-26T22:45:33.796Z,15.20
2018-09-26T22:48:01.104Z,15.10
2018-09-26T22:50:28.411Z,15.10
2018-09-26T22:52:55.725Z,15.00
2018-09-26T22:55:23.067Z,15.00
2018-09-26T22:57:50.379Z,14.90
2018-09-26T23:00:17.719Z,14.90
2018-09-26T23:02:45.066Z,14.80
2018-09-26T23:05:12.380Z,14.80
2018-09-26T23:07:39.703Z,14.70
2018-09-26T23:10:07.051Z,14.70
2018-09-26T23:12:34.323Z,14.60
2018-09-26T23:15:01.644Z,14.60
2018-09-26T23:17:28.973Z,14.50
2018-09-26T23:19:56.289Z,14.40
2018-09-26T23:22:23.595Z,14.40
2018-09-26T23:24:50.898Z,14.30
2018-09-26T23:27:18.196Z,14.20
2018-09-26T23:29:45.525Z,14.20
2018-09-26T23:32:12.884Z,14.10
2018-09-26T23:34:40.191Z,14.10
2018-09-26T23:37:07.497Z,14.00
2018-09-26T23:39:34.823Z,14.00
2018-09-26T23:42:02.146Z,13.90
2018-09-26T23:44:30.287Z,13.90
2018-09-26T23:46:57.975Z,13.80
2018-09-26T23:49:25.288Z,13.80
2018-09-26T23:51:52.604Z,13.80
2018-09-26T23:54:20.386Z,13.70
2018-09-26T23:56:47.688Z,13.60
2018-09-26T23:59:15.256Z,13.60
